createdAt,value
2018-06-15T00:01:09.315Z,19.64
2018-06-15T00:03:40.313Z,19.61
2018-06-15T00:06:11.424Z,19.61
2018-06-15T00:08:42.605Z,19.54
2018-06-15T00:11:13.671Z,19.46
2018-06-15T00:13:45.300Z,19.48
2018-06-15T00:16:16.391Z,19.53
2018-06-15T00:18:50.210Z,19.58
2018-06-15T00:21:21.365Z,19.53
2018-06-15T00:23:52.538Z,19.47
2018-06-15T00:26:24.277Z,19.50
2018-06-15T00:28:55.262Z,19.59
2018-06-15T00:31:26.268Z,19.42
2018-06-15T00:33:57.699Z,19.45
2018-06-15T00:36:28.937Z,19.36
2018-06-15T00:39:00.073Z,19.36
2018-06-15T00:41:31.234Z,19.46
2018-06-15T00:44:03.817Z,19.35
2018-06-15T00:46:34.973Z,19.27
2018-06-15T00:49:07.028Z,19.32
2018-06-15T00:51:38.234Z,19.34
2018-06-15T00:54:09.222Z,19.40
2018-06-15T00:56:50.692Z,19.30
2018-06-15T00:59:22.461Z,19.22
2018-06-15T01:01:53.614Z,19.26
2018-06-15T01:04:24.675Z,19.23
2018-06-15T01:06:55.635Z,19.26
2018-06-15T01:09:27.501Z,19.20
2018-06-15T01:11:58.683Z,19.15
2018-06-15T01:14:29.865Z,19.14
2018-06-15T01:17:01.023Z,19.14
2018-06-15T01:19:32.281Z,19.12
2018-06-15T01:22:03.480Z,19.23
2018-06-15T01:24:34.606Z,19.27
2018-06-15T01:27:05.568Z,19.20
2018-06-15T01:29:36.706Z,19.12
2018-06-15T01:32:07.644Z,19.22
2018-06-15T01:34:38.726Z,19.29
2018-06-15T01:37:10.475Z,19.29
2018-06-15T01:39:42.375Z,19.29
2018-06-15T01:42:13.435Z,19.24
2018-06-15T01:44:45.607Z,19.18
2018-06-15T01:47:16.560Z,19.14
2018-06-15T01:49:47.522Z,19.20
2018-06-15T01:52:18.432Z,19.10
2018-06-15T01:54:49.400Z,19.01
2018-06-15T01:57:21.125Z,19.09
2018-06-15T01:59:53.021Z,19.04
2018-06-15T02:02:24.021Z,18.99
2018-06-15T02:04:55.107Z,18.98
2018-06-15T02:07:26.059Z,18.99
2018-06-15T02:09:57.917Z,19.00
2018-06-15T02:12:28.941Z,19.03
2018-06-15T02:14:59.904Z,19.06
2018-06-15T02:17:31.006Z,19.04
2018-06-15T02:20:02.960Z,19.08
2018-06-15T02:22:34.120Z,19.07
2018-06-15T02:25:07.174Z,19.08
2018-06-15T02:27:39.015Z,19.05
2018-06-15T02:30:10.959Z,18.99
2018-06-15T02:32:42.310Z,18.96
2018-06-15T02:35:13.862Z,18.99
2018-06-15T02:37:49.454Z,19.06
2018-06-15T02:40:20.690Z,19.12
2018-06-15T02:42:51.792Z,19.19
2018-06-15T02:45:24.713Z,19.23
2018-06-15T02:47:56.642Z,19.33
2018-06-15T02:50:27.697Z,19.38
2018-06-15T02:52:58.924Z,19.55
2018-06-15T02:55:30.134Z,19.40
2018-06-15T02:58:01.654Z,19.87
2018-06-15T03:00:32.694Z,20.04
2018-06-15T03:03:04.908Z,20.34
2018-06-15T03:05:36.825Z,20.82
2018-06-15T03:08:07.731Z,21.57
2018-06-15T03:10:38.784Z,22.64
2018-06-15T03:13:10.905Z,23.72
2018-06-15T03:15:42.782Z,24.49
2018-06-15T03:18:13.805Z,25.30
2018-06-15T03:20:44.798Z,25.80
2018-06-15T03:23:16.137Z,26.22
2018-06-15T03:25:47.311Z,26.92
2018-06-15T03:28:18.730Z,27.38
2018-06-15T03:30:49.701Z,28.14
2018-06-15T03:33:22.218Z,28.61
2018-06-15T03:35:53.415Z,28.66
2018-06-15T03:38:24.330Z,29.10
2018-06-15T03:40:55.595Z,29.53
2018-06-15T03:43:26.715Z,29.16
2018-06-15T03:45:57.632Z,28.96
2018-06-15T03:48:28.479Z,30.04
2018-06-15T03:51:00.378Z,30.48
2018-06-15T03:53:32.431Z,30.89
2018-06-15T03:56:03.589Z,30.97
2018-06-15T03:58:35.455Z,31.53
2018-06-15T04:01:07.186Z,32.38
2018-06-15T04:03:38.410Z,32.71
2018-06-15T04:06:10.470Z,32.43
2018-06-15T04:08:42.011Z,32.63
2018-06-15T04:11:13.932Z,33.03
2018-06-15T04:13:45.205Z,32.92
2018-06-15T04:16:16.274Z,32.44
2018-06-15T04:18:47.239Z,33.02
2018-06-15T04:21:18.270Z,32.52
2018-06-15T04:23:49.374Z,33.66
2018-06-15T04:26:20.485Z,32.12
2018-06-15T04:28:51.514Z,31.05
2018-06-15T04:31:23.288Z,30.36
2018-06-15T04:33:54.488Z,30.01
2018-06-15T04:36:25.602Z,32.57
2018-06-15T04:38:56.695Z,33.19
2018-06-15T04:41:28.970Z,31.96
2018-06-15T04:44:01.248Z,32.37
2018-06-15T04:46:32.994Z,32.27
2018-06-15T04:49:04.384Z,31.94
2018-06-15T04:51:35.283Z,31.37
2018-06-15T04:54:06.332Z,33.63
2018-06-15T04:56:37.513Z,34.74
2018-06-15T04:59:08.509Z,33.72
2018-06-15T05:01:39.697Z,32.88
2018-06-15T05:04:10.733Z,34.20
2018-06-15T05:06:42.002Z,34.20
2018-06-15T05:09:13.938Z,35.07
2018-06-15T05:11:45.467Z,36.09
2018-06-15T05:14:16.491Z,37.81
2018-06-15T05:16:47.885Z,38.52
2018-06-15T05:19:19.190Z,37.89
2018-06-15T05:21:50.377Z,38.28
2018-06-15T05:24:21.480Z,38.29
2018-06-15T05:26:53.552Z,39.71
2018-06-15T05:29:25.837Z,40.82
2018-06-15T05:31:57.235Z,40.65
2018-06-15T05:34:29.675Z,40.83
2018-06-15T05:37:00.809Z,40.21
2018-06-15T05:39:31.850Z,41.86
2018-06-15T05:42:04.841Z,39.65
2018-06-15T05:44:35.979Z,39.54
2018-06-15T05:47:07.907Z,41.56
2018-06-15T05:49:38.929Z,40.26
2018-06-15T05:52:10.082Z,37.90
2018-06-15T05:54:41.174Z,37.12
2018-06-15T05:57:12.150Z,37.70
2018-06-15T05:59:43.290Z,38.71
2018-06-15T06:02:14.999Z,37.24
2018-06-15T06:04:46.032Z,36.56
2018-06-15T06:07:17.220Z,37.82
2018-06-15T06:09:49.005Z,39.89
2018-06-15T06:12:20.723Z,42.23
2018-06-15T06:14:51.834Z,43.47
2018-06-15T06:17:23.023Z,43.79
2018-06-15T06:19:53.943Z,44.33
2018-06-15T06:22:24.857Z,44.22
2018-06-15T06:24:55.910Z,44.67
2018-06-15T06:27:28.224Z,45.07
2018-06-15T06:29:59.328Z,44.00
2018-06-15T06:32:31.317Z,45.01
2018-06-15T06:35:03.832Z,44.39
2018-06-15T06:37:35.109Z,44.77
2018-06-15T06:40:07.115Z,44.22
2018-06-15T06:42:38.319Z,44.56
2018-06-15T06:45:09.335Z,44.01
2018-06-15T06:47:41.254Z,44.00
2018-06-15T06:50:12.759Z,44.30
2018-06-15T06:52:43.831Z,44.30
2018-06-15T06:55:14.925Z,44.46
2018-06-15T06:57:47.584Z,44.57
2018-06-15T07:00:19.562Z,43.90
2018-06-15T07:02:50.816Z,44.51
2018-06-15T07:05:22.026Z,44.49
2018-06-15T07:07:53.262Z,41.10
2018-06-15T07:10:24.286Z,41.81
2018-06-15T07:12:55.490Z,43.35
2018-06-15T07:15:26.729Z,43.91
2018-06-15T07:17:57.566Z,44.90
2018-06-15T07:20:28.139Z,45.25
2018-06-15T07:22:58.838Z,44.94
2018-06-15T07:25:29.674Z,44.46
2018-06-15T07:28:01.636Z,44.14
2018-06-15T07:30:32.660Z,44.14
2018-06-15T07:33:04.547Z,44.19
2018-06-15T07:35:35.156Z,44.22
2018-06-15T07:38:06.226Z,44.00
2018-06-15T07:40:36.955Z,43.66
2018-06-15T07:43:07.785Z,44.10
2018-06-15T07:45:38.387Z,43.88
2018-06-15T07:48:09.917Z,43.60
2018-06-15T07:50:40.940Z,42.86
2018-06-15T07:53:11.961Z,42.01
2018-06-15T07:55:42.864Z,42.18
2018-06-15T07:58:15.688Z,42.73
2018-06-15T08:00:46.495Z,42.39
2018-06-15T08:03:18.970Z,42.30
2018-06-15T08:05:50.145Z,38.22
2018-06-15T08:08:21.392Z,40.00
2018-06-15T08:10:52.884Z,39.56
2018-06-15T08:13:23.806Z,37.83
2018-06-15T08:15:54.763Z,35.87
2018-06-15T08:18:26.550Z,34.21
2018-06-15T08:20:57.475Z,32.80
2018-06-15T08:23:28.898Z,31.37
2018-06-15T08:25:59.792Z,30.65
2018-06-15T08:28:31.908Z,29.90
2018-06-15T08:31:02.957Z,29.94
2018-06-15T08:33:34.873Z,29.61
2018-06-15T08:36:06.072Z,29.85
2018-06-15T08:38:37.382Z,29.86
2018-06-15T08:41:08.568Z,29.62
2018-06-15T08:43:40.467Z,29.45
2018-06-15T08:46:11.730Z,29.38
2018-06-15T08:48:42.836Z,29.31
2018-06-15T08:51:13.721Z,29.03
2018-06-15T08:53:44.711Z,29.11
2018-06-15T08:56:15.653Z,28.90
2018-06-15T08:58:46.848Z,28.79
2018-06-15T09:01:17.822Z,28.62
2018-06-15T09:03:50.667Z,28.74
2018-06-15T09:06:21.898Z,28.82
2018-06-15T09:08:57.086Z,28.44
2018-06-15T09:11:28.242Z,28.65
2018-06-15T09:14:00.131Z,28.69
2018-06-15T09:16:32.117Z,28.53
2018-06-15T09:19:03.302Z,28.57
2018-06-15T09:21:34.421Z,28.55
2018-06-15T09:24:05.517Z,28.63
2018-06-15T09:26:36.556Z,28.50
2018-06-15T09:29:07.900Z,28.64
2018-06-15T09:31:39.053Z,28.63
2018-06-15T09:34:10.734Z,28.84
2018-06-15T09:36:41.821Z,28.82
2018-06-15T09:39:13.265Z,29.14
2018-06-15T09:41:44.378Z,29.18
2018-06-15T09:44:16.445Z,28.90
2018-06-15T09:46:47.642Z,28.96
2018-06-15T09:49:19.537Z,28.98
2018-06-15T09:51:50.779Z,28.89
2018-06-15T09:54:21.865Z,28.43
2018-06-15T09:56:52.933Z,28.57
2018-06-15T09:59:24.587Z,28.60
2018-06-15T10:01:55.697Z,28.47
2018-06-15T10:04:26.861Z,28.52
2018-06-15T10:06:57.750Z,28.57
2018-06-15T10:09:29.067Z,28.53
2018-06-15T10:12:00.850Z,28.38
2018-06-15T10:14:31.800Z,28.45
2018-06-15T10:17:02.995Z,28.21
2018-06-15T10:19:33.958Z,28.06
2018-06-15T10:22:05.111Z,27.86
2018-06-15T10:24:37.053Z,27.56
2018-06-15T10:27:08.140Z,27.74
2018-06-15T10:29:39.152Z,27.63
2018-06-15T10:32:10.214Z,27.37
2018-06-15T10:34:41.406Z,27.42
2018-06-15T10:37:12.524Z,27.61
2018-06-15T10:39:43.789Z,27.73
2018-06-15T10:42:14.778Z,27.85
2018-06-15T10:44:45.748Z,28.05
2018-06-15T10:47:16.825Z,27.65
2018-06-15T10:49:48.841Z,27.86
2018-06-15T10:52:19.893Z,27.95
2018-06-15T10:54:50.961Z,28.00
2018-06-15T10:57:22.052Z,27.93
2018-06-15T10:59:53.800Z,27.91
2018-06-15T11:02:25.191Z,27.88
2018-06-15T11:04:57.742Z,27.94
2018-06-15T11:07:28.718Z,27.80
2018-06-15T11:09:59.948Z,26.84
2018-06-15T11:12:31.035Z,26.43
2018-06-15T11:15:03.291Z,26.51
2018-06-15T11:17:35.028Z,26.57
2018-06-15T11:20:07.035Z,26.84
2018-06-15T11:22:38.397Z,26.61
2018-06-15T11:25:09.645Z,26.72
2018-06-15T11:27:41.106Z,26.36
2018-06-15T11:30:12.172Z,26.26
2018-06-15T11:32:44.083Z,26.40
2018-06-15T11:35:16.352Z,26.43
2018-06-15T11:37:47.505Z,26.59
2018-06-15T11:40:19.551Z,26.59
2018-06-15T11:42:50.750Z,26.99
2018-06-15T11:45:22.642Z,26.90
2018-06-15T11:47:53.653Z,26.82
2018-06-15T11:50:24.741Z,26.40
2018-06-15T11:52:55.896Z,26.36
2018-06-15T11:55:27.022Z,26.40
2018-06-15T11:57:58.114Z,26.35
2018-06-15T12:00:29.136Z,26.45
2018-06-15T12:03:00.469Z,26.33
2018-06-15T12:05:31.649Z,26.00
2018-06-15T12:08:02.756Z,26.04
2018-06-15T12:10:34.088Z,26.04
2018-06-15T12:13:05.275Z,26.34
2018-06-15T12:15:36.807Z,26.18
2018-06-15T12:18:08.057Z,26.24
2018-06-15T12:20:39.936Z,26.49
2018-06-15T12:23:11.014Z,26.66
2018-06-15T12:25:42.331Z,26.54
2018-06-15T12:28:14.510Z,26.49
2018-06-15T12:30:45.869Z,26.35
2018-06-15T12:33:16.987Z,25.90
2018-06-15T12:35:48.504Z,26.08
2018-06-15T12:38:19.877Z,26.12
2018-06-15T12:40:51.047Z,26.16
2018-06-15T12:43:22.000Z,26.53
2018-06-15T12:45:53.975Z,26.93
2018-06-15T12:48:24.974Z,26.57
2018-06-15T12:50:56.767Z,26.63
2018-06-15T12:53:27.877Z,26.18
2018-06-15T12:55:58.988Z,26.20
2018-06-15T12:58:30.589Z,26.24
2018-06-15T13:01:01.651Z,26.18
2018-06-15T13:03:32.968Z,25.99
2018-06-15T13:06:03.939Z,25.97
2018-06-15T13:08:35.412Z,25.96
2018-06-15T13:11:06.650Z,25.73
2018-06-15T13:13:37.497Z,25.62
2018-06-15T13:16:09.403Z,25.81
2018-06-15T13:18:40.596Z,26.27
2018-06-15T13:21:12.440Z,26.54
2018-06-15T13:23:44.627Z,26.67
2018-06-15T13:26:15.773Z,26.66
2018-06-15T13:28:46.755Z,26.47
2018-06-15T13:31:19.392Z,26.64
2018-06-15T13:33:50.519Z,26.95
2018-06-15T13:36:22.435Z,27.24
2018-06-15T13:38:53.630Z,27.33
2018-06-15T13:41:25.952Z,27.43
2018-06-15T13:43:57.298Z,27.35
2018-06-15T13:46:28.713Z,27.33
2018-06-15T13:48:59.691Z,27.15
2018-06-15T13:51:32.775Z,27.04
2018-06-15T13:54:04.062Z,27.04
2018-06-15T13:56:35.356Z,27.00
2018-06-15T13:59:06.326Z,26.97
2018-06-15T14:01:37.202Z,27.12
2018-06-15T14:04:08.377Z,26.90
2018-06-15T14:06:39.524Z,26.84
2018-06-15T14:09:11.272Z,26.91
2018-06-15T14:11:43.118Z,26.87
2018-06-15T14:14:14.137Z,26.96
2018-06-15T14:16:46.149Z,26.90
2018-06-15T14:19:17.246Z,26.75
2018-06-15T14:21:48.445Z,26.61
2018-06-15T14:24:19.439Z,26.47
2018-06-15T14:26:50.636Z,26.59
2018-06-15T14:29:22.509Z,26.51
2018-06-15T14:31:53.950Z,26.60
2018-06-15T14:34:25.169Z,26.17
2018-06-15T14:36:56.939Z,26.11
2018-06-15T14:39:28.167Z,25.75
2018-06-15T14:41:59.052Z,25.65
2018-06-15T14:44:30.414Z,25.65
2018-06-15T14:47:03.089Z,25.61
2018-06-15T14:49:34.202Z,25.56
2018-06-15T14:52:05.253Z,25.30
2018-06-15T14:54:36.417Z,25.23
2018-06-15T14:57:07.667Z,25.28
2018-06-15T14:59:39.590Z,25.22
2018-06-15T15:02:11.688Z,25.01
2018-06-15T15:04:42.816Z,24.89
2018-06-15T15:07:14.056Z,25.13
2018-06-15T15:09:45.191Z,25.27
2018-06-15T15:12:16.463Z,25.47
2018-06-15T15:14:48.485Z,25.55
2018-06-15T15:17:20.840Z,25.50
2018-06-15T15:19:51.961Z,25.63
2018-06-15T15:22:23.764Z,25.75
2018-06-15T15:24:55.039Z,25.86
2018-06-15T15:27:25.996Z,25.85
2018-06-15T15:29:58.315Z,25.85
2018-06-15T15:32:29.965Z,25.83
2018-06-15T15:35:01.102Z,25.87
2018-06-15T15:37:32.274Z,25.89
2018-06-15T15:40:03.486Z,25.87
2018-06-15T15:42:34.671Z,25.85
2018-06-15T15:45:05.828Z,25.68
2018-06-15T15:47:37.979Z,25.67
2018-06-15T15:50:09.080Z,25.36
2018-06-15T15:52:40.622Z,25.29
2018-06-15T15:55:12.073Z,25.42
2018-06-15T15:57:43.320Z,25.33
2018-06-15T16:00:14.476Z,25.29
2018-06-15T16:02:46.208Z,25.32
2018-06-15T16:05:17.525Z,25.36
2018-06-15T16:07:50.811Z,25.29
2018-06-15T16:10:23.203Z,25.27
2018-06-15T16:12:54.588Z,25.17
2018-06-15T16:15:26.045Z,25.16
2018-06-15T16:17:57.749Z,25.10
2018-06-15T16:20:28.873Z,25.16
2018-06-15T16:23:01.193Z,25.13
2018-06-15T16:25:32.387Z,25.11
2018-06-15T16:28:03.330Z,25.10
2018-06-15T16:30:34.590Z,25.00
2018-06-15T16:33:05.923Z,24.98
2018-06-15T16:35:37.059Z,24.83
2018-06-15T16:38:09.880Z,24.70
2018-06-15T16:40:41.064Z,24.62
2018-06-15T16:43:13.607Z,24.69
2018-06-15T16:45:44.745Z,24.65
2018-06-15T16:48:16.993Z,24.70
2018-06-15T16:50:48.057Z,24.55
2018-06-15T16:53:20.245Z,24.45
2018-06-15T16:55:51.393Z,24.50
2018-06-15T16:58:22.481Z,24.42
2018-06-15T17:00:53.817Z,24.43
2018-06-15T17:03:25.347Z,24.42
2018-06-15T17:05:56.517Z,24.30
2018-06-15T17:08:27.725Z,24.33
2018-06-15T17:10:59.220Z,24.19
2018-06-15T17:13:31.068Z,24.19
2018-06-15T17:16:02.702Z,24.13
2018-06-15T17:18:35.019Z,24.06
2018-06-15T17:21:06.292Z,23.89
2018-06-15T17:23:38.215Z,23.79
2018-06-15T17:26:10.757Z,23.80
2018-06-15T17:28:42.040Z,23.73
2018-06-15T17:31:13.535Z,23.87
2018-06-15T17:33:52.913Z,23.88
2018-06-15T17:36:23.951Z,23.79
2018-06-15T17:38:55.215Z,23.81
2018-06-15T17:41:26.344Z,23.73
2018-06-15T17:43:57.575Z,23.67
2018-06-15T17:46:28.499Z,23.61
2018-06-15T17:48:59.620Z,23.63
2018-06-15T17:51:31.867Z,23.53
2018-06-15T17:54:03.890Z,23.50
2018-06-15T17:56:35.586Z,23.47
2018-06-15T17:59:06.656Z,23.40
2018-06-15T18:01:37.731Z,23.24
2018-06-15T18:04:09.112Z,23.29
2018-06-15T18:06:40.168Z,23.20
2018-06-15T18:09:12.523Z,23.22
2018-06-15T18:11:43.976Z,23.19
2018-06-15T18:14:15.340Z,23.14
2018-06-15T18:16:47.240Z,23.16
2018-06-15T18:19:18.427Z,23.17
2018-06-15T18:21:54.989Z,23.22
2018-06-15T18:24:26.745Z,23.23
2018-06-15T18:26:58.857Z,23.26
2018-06-15T18:29:30.055Z,23.25
2018-06-15T18:32:01.177Z,23.25
2018-06-15T18:34:33.881Z,23.22
2018-06-15T18:37:05.234Z,23.00
2018-06-15T18:39:36.398Z,23.11
2018-06-15T18:42:07.845Z,23.01
2018-06-15T18:44:39.041Z,22.79
2018-06-15T18:47:10.347Z,22.69
2018-06-15T18:49:41.242Z,22.42
2018-06-15T18:52:12.392Z,22.44
2018-06-15T18:54:43.507Z,22.49
2018-06-15T18:57:14.458Z,22.43
2018-06-15T18:59:51.643Z,22.32
2018-06-15T19:02:22.951Z,22.21
2018-06-15T19:04:54.404Z,22.11
2018-06-15T19:07:26.482Z,22.04
2018-06-15T19:09:57.805Z,22.02
2018-06-15T19:12:31.053Z,21.96
2018-06-15T19:15:02.654Z,21.97
2018-06-15T19:17:33.744Z,21.86
2018-06-15T19:20:04.938Z,21.78
2018-06-15T19:22:37.917Z,21.68
2018-06-15T19:25:09.055Z,21.68
2018-06-15T19:27:40.165Z,21.60
2018-06-15T19:30:11.164Z,21.66
2018-06-15T19:32:43.276Z,21.79
2018-06-15T19:35:15.635Z,21.75
2018-06-15T19:37:47.428Z,21.82
2018-06-15T19:40:19.550Z,21.87
2018-06-15T19:42:50.700Z,21.86
2018-06-15T19:45:21.804Z,21.86
2018-06-15T19:47:53.196Z,21.87
2018-06-15T19:50:26.182Z,21.86
2018-06-15T19:52:57.302Z,21.80
2018-06-15T19:55:28.709Z,21.76
2018-06-15T19:58:00.147Z,21.65
2018-06-15T20:00:31.294Z,21.56
2018-06-15T20:03:02.618Z,21.63
2018-06-15T20:05:33.663Z,21.63
2018-06-15T20:08:05.231Z,21.76
2018-06-15T20:10:36.265Z,21.88
2018-06-15T20:13:07.396Z,21.89
2018-06-15T20:15:38.578Z,21.86
2018-06-15T20:18:09.871Z,21.87
2018-06-15T20:20:40.893Z,21.81
2018-06-15T20:23:12.914Z,21.81
2018-06-15T20:25:44.105Z,21.76
2018-06-15T20:28:16.066Z,21.74
2018-06-15T20:30:47.321Z,21.73
2018-06-15T20:33:18.771Z,21.73
2018-06-15T20:35:49.905Z,21.82
2018-06-15T20:38:20.917Z,21.88
2018-06-15T20:40:52.153Z,21.84
2018-06-15T20:43:23.260Z,21.80
2018-06-15T20:45:54.312Z,21.76
2018-06-15T20:48:25.566Z,21.73
2018-06-15T20:50:56.618Z,21.71
2018-06-15T20:53:28.581Z,21.77
2018-06-15T20:55:59.370Z,21.71
2018-06-15T20:58:31.567Z,21.77
2018-06-15T21:01:02.583Z,21.74
2018-06-15T21:03:33.911Z,21.74
2018-06-15T21:06:04.943Z,21.71
2018-06-15T21:08:35.995Z,21.63
2018-06-15T21:11:06.993Z,21.64
2018-06-15T21:13:38.867Z,21.73
2018-06-15T21:16:10.920Z,21.73
2018-06-15T21:18:42.240Z,21.74
2018-06-15T21:21:13.202Z,21.75
2018-06-15T21:23:44.386Z,21.77
2018-06-15T21:26:15.325Z,21.79
2018-06-15T21:28:46.355Z,21.81
2018-06-15T21:31:17.368Z,21.73
2018-06-15T21:33:48.276Z,21.75
2018-06-15T21:36:19.450Z,21.74
2018-06-15T21:38:51.143Z,21.80
2018-06-15T21:41:22.247Z,21.77
2018-06-15T21:43:53.757Z,21.76
2018-06-15T21:46:24.859Z,21.74
2018-06-15T21:48:55.912Z,21.73
2018-06-15T21:51:27.048Z,21.74
2018-06-15T21:53:58.935Z,21.75
2018-06-15T21:56:30.022Z,21.75
2018-06-15T21:59:01.925Z,21.82
2018-06-15T22:01:33.127Z,21.84
2018-06-15T22:04:04.306Z,21.83
2018-06-15T22:06:35.458Z,21.81
2018-06-15T22:09:09.643Z,21.78
2018-06-15T22:11:40.701Z,21.83
2018-06-15T22:14:12.377Z,21.83
2018-06-15T22:16:48.046Z,21.81
2018-06-15T22:19:20.646Z,21.75
2018-06-15T22:21:52.826Z,21.63
2018-06-15T22:24:25.286Z,21.72
2018-06-15T22:26:56.356Z,21.65
2018-06-15T22:29:27.305Z,21.61
2018-06-15T22:31:58.284Z,21.60
2018-06-15T22:34:30.105Z,21.54
2018-06-15T22:37:01.362Z,21.51
2018-06-15T22:39:33.041Z,21.48
2018-06-15T22:42:03.968Z,21.46
2018-06-15T22:44:34.856Z,21.43
2018-06-15T22:47:05.782Z,21.40
2018-06-15T22:49:36.951Z,21.32
2018-06-15T22:52:07.905Z,21.25
2018-06-15T22:54:39.983Z,21.32
2018-06-15T22:57:11.034Z,21.30
2018-06-15T22:59:42.885Z,21.33
2018-06-15T23:02:13.895Z,21.07
2018-06-15T23:04:45.090Z,20.99
2018-06-15T23:07:16.052Z,20.97
2018-06-15T23:09:47.788Z,20.97
2018-06-15T23:12:18.828Z,20.94
2018-06-15T23:14:49.909Z,20.93
2018-06-15T23:17:21.082Z,20.97
2018-06-15T23:19:52.887Z,20.93
2018-06-15T23:22:23.680Z,20.98
2018-06-15T23:24:55.198Z,21.08
2018-06-15T23:27:26.161Z,21.13
2018-06-15T23:29:58.180Z,21.23
2018-06-15T23:32:29.315Z,21.18
2018-06-15T23:35:00.383Z,21.12
2018-06-15T23:37:32.488Z,21.07
2018-06-15T23:40:04.638Z,20.94
2018-06-15T23:42:35.778Z,20.99
2018-06-15T23:45:06.765Z,20.82
2018-06-15T23:47:37.909Z,20.74
2018-06-15T23:50:09.139Z,20.67
2018-06-15T23:52:40.217Z,20.67
2018-06-15T23:55:12.293Z,20.76
2018-06-15T23:57:43.386Z,20.65
